sensor_id;sensor_type;location;lat;lon;timestamp;temperature;humidity
9414;DHT22;4746;35.664;139.738;2022-07-30T00:00:26;32.20;99.90
9414;DHT22;4746;35.664;139.738;2022-07-30T00:02:54;32.20;99.90
9414;DHT22;4746;35.664;139.738;2022-07-30T00:05:22;32.30;99.90
9414;DHT22;4746;35.664;139.738;2022-07-30T00:07:49;32.30;99.90
9414;DHT22;4746;35.664;139.738;2022-07-30T00:10:17;32.30;99.90
9414;DHT22;4746;35.664;139.738;2022-07-30T00:12:45;32.10;99.90
9414;DHT22;4746;35.664;139.738;2022-07-30T00:15:13;32.20;99.90
9414;DHT22;4746;35.664;139.738;2022-07-30T00:17:41;32.30;99.90
9414;DHT22;4746;35.664;139.738;2022-07-30T00:20:09;32.40;99.90
9414;DHT22;4746;35.664;139.738;2022-07-30T00:22:37;32.50;99.90
9414;DHT22;4746;35.664;139.738;2022-07-30T00:25:05;32.70;99.90
9414;DHT22;4746;35.664;139.738;2022-07-30T00:27:33;32.80;99.90
9414;DHT22;4746;35.664;139.738;2022-07-30T00:30:02;32.70;99.90
9414;DHT22;4746;35.664;139.738;2022-07-30T00:32:30;32.60;99.90
9414;DHT22;4746;35.664;139.738;2022-07-30T00:34:58;32.40;99.90
9414;DHT22;4746;35.664;139.738;2022-07-30T00:37:25;32.40;99.90
9414;DHT22;4746;35.664;139.738;2022-07-30T00:39:53;32.30;99.90
9414;DHT22;4746;35.664;139.738;2022-07-30T00:42:21;32.30;99.90
9414;DHT22;4746;35.664;139.738;2022-07-30T00:44:54;32.30;99.90
9414;DHT22;4746;35.664;139.738;2022-07-30T00:47:21;32.40;99.90
9414;DHT22;4746;35.664;139.738;2022-07-30T00:49:49;32.40;99.90
9414;DHT22;4746;35.664;139.738;2022-07-30T00:52:16;32.50;99.90
9414;DHT22;4746;35.664;139.738;2022-07-30T00:54:44;32.50;99.90
9414;DHT22;4746;35.664;139.738;2022-07-30T00:57:11;32.50;99.90
9414;DHT22;4746;35.664;139.738;2022-07-30T00:59:39;32.60;99.90
9414;DHT22;4746;35.664;139.738;2022-07-30T01:02:08;32.70;99.90
9414;DHT22;4746;35.664;139.738;2022-07-30T01:04:35;32.80;99.90
9414;DHT22;4746;35.664;139.738;2022-07-30T01:07:03;32.90;99.90
9414;DHT22;4746;35.664;139.738;2022-07-30T01:09:31;33.10;99.90
9414;DHT22;4746;35.664;139.738;2022-07-30T01:11:59;33.10;99.90
9414;DHT22;4746;35.664;139.738;2022-07-30T01:14:27;33.10;99.90
9414;DHT22;4746;35.664;139.738;2022-07-30T01:16:55;33.20;99.90
9414;DHT22;4746;35.664;139.738;2022-07-30T01:19:32;33.30;99.90
9414;DHT22;4746;35.664;139.738;2022-07-30T01:25:05;33.50;99.90
9414;DHT22;4746;35.664;139.738;2022-07-30T01:28:08;33.60;99.90
9414;DHT22;4746;35.664;139.738;2022-07-30T01:30:41;33.70;99.90
9414;DHT22;4746;35.664;139.738;2022-07-30T01:33:12;33.80;99.90
9414;DHT22;4746;35.664;139.738;2022-07-30T01:35:44;34.00;99.90
9414;DHT22;4746;35.664;139.738;2022-07-30T01:38:17;34.10;99.90
9414;DHT22;4746;35.664;139.738;2022-07-30T01:40:50;34.30;99.90
9414;DHT22;4746;35.664;139.738;2022-07-30T01:43:22;34.40;99.90
9414;DHT22;4746;35.664;139.738;2022-07-30T01:45:52;34.50;99.90
9414;DHT22;4746;35.664;139.738;2022-07-30T01:48:23;34.50;99.90
9414;DHT22;4746;35.664;139.738;2022-07-30T01:50:53;34.60;99.90
9414;DHT22;4746;35.664;139.738;2022-07-30T01:53:27;34.60;99.90
9414;DHT22;4746;35.664;139.738;2022-07-30T01:55:59;34.60;99.90
9414;DHT22;4746;35.664;139.738;2022-07-30T01:58:31;34.60;99.90
9414;DHT22;4746;35.664;139.738;2022-07-30T02:01:03;34.60;99.90
9414;DHT22;4746;35.664;139.738;2022-07-30T02:03:33;34.70;99.90
9414;DHT22;4746;35.664;139.738;2022-07-30T02:06:18;34.70;99.90
9414;DHT22;4746;35.664;139.738;2022-07-30T02:09:03;34.70;99.90
9414;DHT22;4746;35.664;139.738;2022-07-30T02:11:39;34.70;99.90
9414;DHT22;4746;35.664;139.738;2022-07-30T02:14:54;34.70;99.90
9414;DHT22;4746;35.664;139.738;2022-07-30T02:20:35;34.70;99.90
9414;DHT22;4746;35.664;139.738;2022-07-30T02:23:06;34.80;99.90
9414;DHT22;4746;35.664;139.738;2022-07-30T02:25:40;34.70;99.90
9414;DHT22;4746;35.664;139.738;2022-07-30T02:28:14;34.70;99.90
9414;DHT22;4746;35.664;139.738;2022-07-30T02:30:50;34.70;99.90
9414;DHT22;4746;35.664;139.738;2022-07-30T02:33:37;34.80;99.90
9414;DHT22;4746;35.664;139.738;2022-07-30T02:36:09;34.70;99.90
9414;DHT22;4746;35.664;139.738;2022-07-30T02:38:38;34.70;99.90
9414;DHT22;4746;35.664;139.738;2022-07-30T02:41:09;34.70;99.90
9414;DHT22;4746;35.664;139.738;2022-07-30T02:43:39;34.60;99.90
9414;DHT22;4746;35.664;139.738;2022-07-30T02:46:10;34.70;99.90
9414;DHT22;4746;35.664;139.738;2022-07-30T02:48:41;34.60;99.90
9414;DHT22;4746;35.664;139.738;2022-07-30T02:51:10;34.60;99.90
9414;DHT22;4746;35.664;139.738;2022-07-30T02:53:44;34.50;99.90
9414;DHT22;4746;35.664;139.738;2022-07-30T02:56:14;34.50;99.90
9414;DHT22;4746;35.664;139.738;2022-07-30T02:58:45;34.60;99.90
9414;DHT22;4746;35.664;139.738;2022-07-30T03:01:15;34.60;99.90
9414;DHT22;4746;35.664;139.738;2022-07-30T03:03:47;34.70;99.90
9414;DHT22;4746;35.664;139.738;2022-07-30T03:06:16;34.60;99.90
9414;DHT22;4746;35.664;139.738;2022-07-30T03:08:45;34.70;99.90
9414;DHT22;4746;35.664;139.738;2022-07-30T03:11:14;34.70;99.90
9414;DHT22;4746;35.664;139.738;2022-07-30T03:13:44;34.70;99.90
9414;DHT22;4746;35.664;139.738;2022-07-30T03:16:16;34.70;99.90
9414;DHT22;4746;35.664;139.738;2022-07-30T03:18:51;34.80;99.90
9414;DHT22;4746;35.664;139.738;2022-07-30T03:21:25;34.80;99.90
9414;DHT22;4746;35.664;139.738;2022-07-30T03:23:55;34.90;99.90
9414;DHT22;4746;35.664;139.738;2022-07-30T03:26:24;34.90;99.90
9414;DHT22;4746;35.664;139.738;2022-07-30T03:28:54;34.90;99.90
9414;DHT22;4746;35.664;139.738;2022-07-30T03:31:22;35.00;99.90
9414;DHT22;4746;35.664;139.738;2022-07-30T03:33:50;35.00;99.90
9414;DHT22;4746;35.664;139.738;2022-07-30T03:36:19;35.00;99.90
9414;DHT22;4746;35.664;139.738;2022-07-30T03:38:46;35.00;99.90
9414;DHT22;4746;35.664;139.738;2022-07-30T03:41:15;35.00;99.90
9414;DHT22;4746;35.664;139.738;2022-07-30T03:43:44;35.10;99.90
9414;DHT22;4746;35.664;139.738;2022-07-30T03:46:13;35.10;99.90
9414;DHT22;4746;35.664;139.738;2022-07-30T03:48:43;35.20;99.90
9414;DHT22;4746;35.664;139.738;2022-07-30T03:51:12;35.20;99.90
9414;DHT22;4746;35.664;139.738;2022-07-30T03:53:40;35.20;99.90
9414;DHT22;4746;35.664;139.738;2022-07-30T03:56:09;35.20;99.90
9414;DHT22;4746;35.664;139.738;2022-07-30T03:58:39;35.10;99.90
9414;DHT22;4746;35.664;139.738;2022-07-30T04:01:06;35.20;99.90
9414;DHT22;4746;35.664;139.738;2022-07-30T04:03:34;35.20;99.90
9414;DHT22;4746;35.664;139.738;2022-07-30T04:06:02;35.30;99.90
9414;DHT22;4746;35.664;139.738;2022-07-30T04:08:29;35.40;99.90
9414;DHT22;4746;35.664;139.738;2022-07-30T04:10:57;35.50;99.90
9414;DHT22;4746;35.664;139.738;2022-07-30T04:13:25;35.50;99.90
9414;DHT22;4746;35.664;139.738;2022-07-30T04:18:41;35.60;99.90
9414;DHT22;4746;35.664;139.738;2022-07-30T04:21:15;35.70;99.90
9414;DHT22;4746;35.664;139.738;2022-07-30T04:23:47;35.80;99.90
9414;DHT22;4746;35.664;139.738;2022-07-30T04:26:17;35.80;99.90
9414;DHT22;4746;35.664;139.738;2022-07-30T04:28:47;35.50;99.90
9414;DHT22;4746;35.664;139.738;2022-07-30T04:31:15;35.60;99.90
9414;DHT22;4746;35.664;139.738;2022-07-30T04:33:45;35.50;99.90
9414;DHT22;4746;35.664;139.738;2022-07-30T04:36:13;35.60;99.90
9414;DHT22;4746;35.664;139.738;2022-07-30T04:38:40;35.60;99.90
9414;DHT22;4746;35.664;139.738;2022-07-30T04:41:08;35.70;99.90
9414;DHT22;4746;35.664;139.738;2022-07-30T04:43:35;35.90;99.90
9414;DHT22;4746;35.664;139.738;2022-07-30T04:46:03;36.00;99.90
9414;DHT22;4746;35.664;139.738;2022-07-30T04:48:30;36.00;99.90
9414;DHT22;4746;35.664;139.738;2022-07-30T04:50:59;36.10;99.90
9414;DHT22;4746;35.664;139.738;2022-07-30T04:53:31;36.30;99.90
9414;DHT22;4746;35.664;139.738;2022-07-30T04:56:00;36.50;99.90
9414;DHT22;4746;35.664;139.738;2022-07-30T04:58:32;36.60;99.90
9414;DHT22;4746;35.664;139.738;2022-07-30T05:01:02;36.60;99.90
9414;DHT22;4746;35.664;139.738;2022-07-30T05:03:31;36.60;99.90
9414;DHT22;4746;35.664;139.738;2022-07-30T05:06:00;36.50;99.90
9414;DHT22;4746;35.664;139.738;2022-07-30T05:08:28;36.50;99.90
9414;DHT22;4746;35.664;139.738;2022-07-30T05:10:56;36.60;99.90
9414;DHT22;4746;35.664;139.738;2022-07-30T05:13:24;36.70;99.90
9414;DHT22;4746;35.664;139.738;2022-07-30T05:15:51;36.90;99.90
9414;DHT22;4746;35.664;139.738;2022-07-30T05:18:19;37.10;99.90
9414;DHT22;4746;35.664;139.738;2022-07-30T05:20:46;37.20;99.90
9414;DHT22;4746;35.664;139.738;2022-07-30T05:23:15;37.50;99.90
9414;DHT22;4746;35.664;139.738;2022-07-30T05:25:42;37.50;99.90
9414;DHT22;4746;35.664;139.738;2022-07-30T05:28:10;37.40;99.90
9414;DHT22;4746;35.664;139.738;2022-07-30T05:30:37;37.30;99.90
9414;DHT22;4746;35.664;139.738;2022-07-30T05:33:05;37.20;99.90
9414;DHT22;4746;35.664;139.738;2022-07-30T05:35:33;37.20;99.90
9414;DHT22;4746;35.664;139.738;2022-07-30T05:38:00;37.30;99.90
9414;DHT22;4746;35.664;139.738;2022-07-30T05:40:28;37.40;99.90
9414;DHT22;4746;35.664;139.738;2022-07-30T05:42:55;37.50;99.90
9414;DHT22;4746;35.664;139.738;2022-07-30T05:45:23;37.80;99.90
9414;DHT22;4746;35.664;139.738;2022-07-30T05:47:50;38.10;99.90
9414;DHT22;4746;35.664;139.738;2022-07-30T05:50:20;38.30;99.90
9414;DHT22;4746;35.664;139.738;2022-07-30T05:52:48;38.60;99.90
9414;DHT22;4746;35.664;139.738;2022-07-30T05:55:15;38.90;99.90
9414;DHT22;4746;35.664;139.738;2022-07-30T05:57:43;39.20;99.90
9414;DHT22;4746;35.664;139.738;2022-07-30T06:00:11;39.50;99.90
9414;DHT22;4746;35.664;139.738;2022-07-30T06:02:39;39.70;99.90
9414;DHT22;4746;35.664;139.738;2022-07-30T06:05:07;39.80;99.90
9414;DHT22;4746;35.664;139.738;2022-07-30T06:07:35;40.10;99.90
9414;DHT22;4746;35.664;139.738;2022-07-30T06:10:03;40.40;99.90
9414;DHT22;4746;35.664;139.738;2022-07-30T06:12:32;40.70;99.90
9414;DHT22;4746;35.664;139.738;2022-07-30T06:14:59;41.10;99.90
9414;DHT22;4746;35.664;139.738;2022-07-30T06:17:27;41.70;99.90
9414;DHT22;4746;35.664;139.738;2022-07-30T06:19:54;42.30;99.90
9414;DHT22;4746;35.664;139.738;2022-07-30T06:22:24;42.90;99.90
9414;DHT22;4746;35.664;139.738;2022-07-30T06:24:52;43.50;99.90
9414;DHT22;4746;35.664;139.738;2022-07-30T06:27:20;44.00;99.90
9414;DHT22;4746;35.664;139.738;2022-07-30T06:29:47;44.50;99.90
9414;DHT22;4746;35.664;139.738;2022-07-30T06:32:15;45.10;99.90
9414;DHT22;4746;35.664;139.738;2022-07-30T06:34:44;45.50;99.90
9414;DHT22;4746;35.664;139.738;2022-07-30T06:37:12;46.10;99.90
9414;DHT22;4746;35.664;139.738;2022-07-30T06:39:39;46.50;99.90
9414;DHT22;4746;35.664;139.738;2022-07-30T06:42:07;47.00;99.90
9414;DHT22;4746;35.664;139.738;2022-07-30T06:44:34;47.50;99.90
9414;DHT22;4746;35.664;139.738;2022-07-30T06:47:02;47.90;99.90
9414;DHT22;4746;35.664;139.738;2022-07-30T06:49:35;48.50;99.10
9414;DHT22;4746;35.664;139.738;2022-07-30T06:52:04;48.80;96.30
9414;DHT22;4746;35.664;139.738;2022-07-30T06:54:32;49.20;95.60
9414;DHT22;4746;35.664;139.738;2022-07-30T06:56:59;49.50;94.00
9414;DHT22;4746;35.664;139.738;2022-07-30T06:59:27;49.60;92.20
9414;DHT22;4746;35.664;139.738;2022-07-30T07:01:55;49.70;90.90
9414;DHT22;4746;35.664;139.738;2022-07-30T07:04:22;49.90;89.60
9414;DHT22;4746;35.664;139.738;2022-07-30T07:06:50;50.00;86.70
9414;DHT22;4746;35.664;139.738;2022-07-30T07:09:21;50.10;85.60
9414;DHT22;4746;35.664;139.738;2022-07-30T07:11:48;50.30;82.80
9414;DHT22;4746;35.664;139.738;2022-07-30T07:14:16;50.10;82.90
9414;DHT22;4746;35.664;139.738;2022-07-30T07:16:43;50.00;82.40
9414;DHT22;4746;35.664;139.738;2022-07-30T07:19:11;49.90;82.30
9414;DHT22;4746;35.664;139.738;2022-07-30T07:21:38;49.60;82.00
9414;DHT22;4746;35.664;139.738;2022-07-30T07:24:06;49.30;82.20
9414;DHT22;4746;35.664;139.738;2022-07-30T07:26:34;49.10;81.70
9414;DHT22;4746;35.664;139.738;2022-07-30T07:29:02;48.70;83.20
9414;DHT22;4746;35.664;139.738;2022-07-30T07:31:29;48.20;82.20
9414;DHT22;4746;35.664;139.738;2022-07-30T07:33:57;47.60;84.30
9414;DHT22;4746;35.664;139.738;2022-07-30T07:36:24;47.70;86.70
9414;DHT22;4746;35.664;139.738;2022-07-30T07:38:52;48.00;87.50
9414;DHT22;4746;35.664;139.738;2022-07-30T07:41:20;48.10;86.00
9414;DHT22;4746;35.664;139.738;2022-07-30T07:43:48;48.10;84.40
9414;DHT22;4746;35.664;139.738;2022-07-30T07:46:15;48.30;85.00
9414;DHT22;4746;35.664;139.738;2022-07-30T07:48:43;48.60;85.40
9414;DHT22;4746;35.664;139.738;2022-07-30T07:51:11;48.50;85.50
9414;DHT22;4746;35.664;139.738;2022-07-30T07:53:38;47.90;81.70
9414;DHT22;4746;35.664;139.738;2022-07-30T07:56:06;47.10;78.90
9414;DHT22;4746;35.664;139.738;2022-07-30T07:58:34;46.30;80.20
9414;DHT22;4746;35.664;139.738;2022-07-30T08:01:01;45.60;81.50
9414;DHT22;4746;35.664;139.738;2022-07-30T08:03:29;44.70;82.60
9414;DHT22;4746;35.664;139.738;2022-07-30T08:05:57;44.10;85.80
9414;DHT22;4746;35.664;139.738;2022-07-30T08:08:26;43.10;90.00
9414;DHT22;4746;35.664;139.738;2022-07-30T08:10:54;42.40;92.40
9414;DHT22;4746;35.664;139.738;2022-07-30T08:13:21;41.80;95.60
9414;DHT22;4746;35.664;139.738;2022-07-30T08:15:49;41.00;99.90
9414;DHT22;4746;35.664;139.738;2022-07-30T08:18:17;40.30;99.90
9414;DHT22;4746;35.664;139.738;2022-07-30T08:20:44;39.30;99.90
9414;DHT22;4746;35.664;139.738;2022-07-30T08:23:12;38.50;99.90
9414;DHT22;4746;35.664;139.738;2022-07-30T08:25:39;38.00;99.90
9414;DHT22;4746;35.664;139.738;2022-07-30T08:28:07;37.70;99.90
9414;DHT22;4746;35.664;139.738;2022-07-30T08:30:34;37.40;99.90
9414;DHT22;4746;35.664;139.738;2022-07-30T08:33:02;37.00;99.90
9414;DHT22;4746;35.664;139.738;2022-07-30T08:35:30;36.60;99.90
9414;DHT22;4746;35.664;139.738;2022-07-30T08:37:58;36.30;99.90
9414;DHT22;4746;35.664;139.738;2022-07-30T08:40:26;36.30;99.90
9414;DHT22;4746;35.664;139.738;2022-07-30T08:42:54;36.30;99.90
9414;DHT22;4746;35.664;139.738;2022-07-30T08:45:22;36.30;99.90
9414;DHT22;4746;35.664;139.738;2022-07-30T08:47:51;36.30;99.90
9414;DHT22;4746;35.664;139.738;2022-07-30T08:50:21;36.10;99.90
9414;DHT22;4746;35.664;139.738;2022-07-30T08:52:49;35.80;99.90
9414;DHT22;4746;35.664;139.738;2022-07-30T08:55:21;35.80;99.90
9414;DHT22;4746;35.664;139.738;2022-07-30T08:57:50;35.80;99.90
9414;DHT22;4746;35.664;139.738;2022-07-30T09:00:18;36.00;99.90
9414;DHT22;4746;35.664;139.738;2022-07-30T09:02:46;36.20;99.90
9414;DHT22;4746;35.664;139.738;2022-07-30T09:05:14;36.60;99.90
9414;DHT22;4746;35.664;139.738;2022-07-30T09:07:42;36.70;99.90
9414;DHT22;4746;35.664;139.738;2022-07-30T09:10:10;37.10;99.90
9414;DHT22;4746;35.664;139.738;2022-07-30T09:12:39;37.60;99.90
9414;DHT22;4746;35.664;139.738;2022-07-30T09:15:17;38.10;99.90
9414;DHT22;4746;35.664;139.738;2022-07-30T09:17:50;38.40;99.90
9414;DHT22;4746;35.664;139.738;2022-07-30T09:20:31;38.40;99.90
9414;DHT22;4746;35.664;139.738;2022-07-30T09:23:02;38.20;99.90
9414;DHT22;4746;35.664;139.738;2022-07-30T09:28:08;37.50;99.90
9414;DHT22;4746;35.664;139.738;2022-07-30T09:30:49;37.20;99.90
9414;DHT22;4746;35.664;139.738;2022-07-30T09:33:40;36.70;99.90
9414;DHT22;4746;35.664;139.738;2022-07-30T09:36:14;36.40;99.90
9414;DHT22;4746;35.664;139.738;2022-07-30T09:38:51;35.80;99.90
9414;DHT22;4746;35.664;139.738;2022-07-30T09:41:32;35.30;99.90
9414;DHT22;4746;35.664;139.738;2022-07-30T09:44:03;35.00;99.90
9414;DHT22;4746;35.664;139.738;2022-07-30T09:46:46;34.70;99.90
9414;DHT22;4746;35.664;139.738;2022-07-30T09:49:19;34.50;99.90
9414;DHT22;4746;35.664;139.738;2022-07-30T09:51:49;34.20;99.90
9414;DHT22;4746;35.664;139.738;2022-07-30T09:54:17;34.00;99.90
9414;DHT22;4746;35.664;139.738;2022-07-30T09:56:45;33.80;99.90
9414;DHT22;4746;35.664;139.738;2022-07-30T09:59:27;33.70;99.90
9414;DHT22;4746;35.664;139.738;2022-07-30T10:01:56;33.60;99.90
9414;DHT22;4746;35.664;139.738;2022-07-30T10:04:31;33.50;99.90
9414;DHT22;4746;35.664;139.738;2022-07-30T10:07:00;33.50;99.90
9414;DHT22;4746;35.664;139.738;2022-07-30T10:09:30;33.50;99.90
9414;DHT22;4746;35.664;139.738;2022-07-30T10:12:03;33.40;99.90
9414;DHT22;4746;35.664;139.738;2022-07-30T10:14:36;33.30;99.90
9414;DHT22;4746;35.664;139.738;2022-07-30T10:17:07;33.30;99.90
9414;DHT22;4746;35.664;139.738;2022-07-30T10:19:36;33.20;99.90
9414;DHT22;4746;35.664;139.738;2022-07-30T10:22:04;33.10;99.90
9414;DHT22;4746;35.664;139.738;2022-07-30T10:24:34;33.00;99.90
9414;DHT22;4746;35.664;139.738;2022-07-30T10:27:03;32.90;99.90
9414;DHT22;4746;35.664;139.738;2022-07-30T10:29:36;32.70;99.90
9414;DHT22;4746;35.664;139.738;2022-07-30T10:32:05;32.60;99.90
9414;DHT22;4746;35.664;139.738;2022-07-30T10:34:33;32.50;99.90
9414;DHT22;4746;35.664;139.738;2022-07-30T10:37:03;32.50;99.90
9414;DHT22;4746;35.664;139.738;2022-07-30T10:39:42;32.40;99.90
9414;DHT22;4746;35.664;139.738;2022-07-30T10:47:51;32.40;99.90
9414;DHT22;4746;35.664;139.738;2022-07-30T10:50:23;32.40;99.90
9414;DHT22;4746;35.664;139.738;2022-07-30T10:52:57;32.40;99.90
9414;DHT22;4746;35.664;139.738;2022-07-30T10:55:30;32.30;99.90
9414;DHT22;4746;35.664;139.738;2022-07-30T10:58:04;32.30;99.90
9414;DHT22;4746;35.664;139.738;2022-07-30T11:00:58;32.20;99.90
9414;DHT22;4746;35.664;139.738;2022-07-30T11:03:30;32.20;99.90
9414;DHT22;4746;35.664;139.738;2022-07-30T11:08:44;32.00;99.90
9414;DHT22;4746;35.664;139.738;2022-07-30T11:19:13;31.80;99.90
9414;DHT22;4746;35.664;139.738;2022-07-30T11:25:08;31.70;99.90
9414;DHT22;4746;35.664;139.738;2022-07-30T11:27:58;31.70;99.90
9414;DHT22;4746;35.664;139.738;2022-07-30T11:33:39;31.60;99.90
9414;DHT22;4746;35.664;139.738;2022-07-30T11:36:23;31.60;99.90
9414;DHT22;4746;35.664;139.738;2022-07-30T11:38:58;31.50;99.90
9414;DHT22;4746;35.664;139.738;2022-07-30T11:41:26;31.50;99.90
9414;DHT22;4746;35.664;139.738;2022-07-30T11:44:27;31.40;99.90
9414;DHT22;4746;35.664;139.738;2022-07-30T11:46:55;31.30;99.90
9414;DHT22;4746;35.664;139.738;2022-07-30T11:49:24;31.30;99.90
9414;DHT22;4746;35.664;139.738;2022-07-30T11:52:00;31.30;99.90
9414;DHT22;4746;35.664;139.738;2022-07-30T11:54:27;31.30;99.90
9414;DHT22;4746;35.664;139.738;2022-07-30T11:56:56;31.30;99.90
9414;DHT22;4746;35.664;139.738;2022-07-30T11:59:23;31.20;99.90
9414;DHT22;4746;35.664;139.738;2022-07-30T12:01:54;31.20;99.90
9414;DHT22;4746;35.664;139.738;2022-07-30T12:04:25;31.20;99.90
9414;DHT22;4746;35.664;139.738;2022-07-30T12:06:52;31.20;99.90
9414;DHT22;4746;35.664;139.738;2022-07-30T12:09:23;31.40;99.90
9414;DHT22;4746;35.664;139.738;2022-07-30T12:11:55;31.40;99.90
9414;DHT22;4746;35.664;139.738;2022-07-30T12:14:24;31.30;99.90
9414;DHT22;4746;35.664;139.738;2022-07-30T12:16:52;31.30;99.90
9414;DHT22;4746;35.664;139.738;2022-07-30T12:19:20;31.30;99.90
9414;DHT22;4746;35.664;139.738;2022-07-30T12:21:48;31.30;99.90
9414;DHT22;4746;35.664;139.738;2022-07-30T12:24:24;31.30;99.90
9414;DHT22;4746;35.664;139.738;2022-07-30T12:27:02;31.30;99.90
9414;DHT22;4746;35.664;139.738;2022-07-30T12:29:33;31.20;99.90
9414;DHT22;4746;35.664;139.738;2022-07-30T12:32:02;31.20;99.90
9414;DHT22;4746;35.664;139.738;2022-07-30T12:34:29;31.10;99.90
9414;DHT22;4746;35.664;139.738;2022-07-30T12:37:08;31.10;99.90
9414;DHT22;4746;35.664;139.738;2022-07-30T12:39:36;31.00;99.90
9414;DHT22;4746;35.664;139.738;2022-07-30T12:42:04;31.00;99.90
9414;DHT22;4746;35.664;139.738;2022-07-30T12:44:39;31.10;99.90
9414;DHT22;4746;35.664;139.738;2022-07-30T12:47:28;31.10;99.90
9414;DHT22;4746;35.664;139.738;2022-07-30T12:49:58;31.00;99.90
9414;DHT22;4746;35.664;139.738;2022-07-30T12:52:32;30.90;99.90
9414;DHT22;4746;35.664;139.738;2022-07-30T12:58:05;30.90;99.90
9414;DHT22;4746;35.664;139.738;2022-07-30T13:00:46;30.90;99.90
9414;DHT22;4746;35.664;139.738;2022-07-30T13:03:25;30.90;99.90
9414;DHT22;4746;35.664;139.738;2022-07-30T13:05:57;30.80;99.90
9414;DHT22;4746;35.664;139.738;2022-07-30T13:11:21;30.70;99.90
9414;DHT22;4746;35.664;139.738;2022-07-30T13:13:51;30.70;99.90
9414;DHT22;4746;35.664;139.738;2022-07-30T13:16:19;30.70;99.90
9414;DHT22;4746;35.664;139.738;2022-07-30T13:18:46;30.60;99.90
9414;DHT22;4746;35.664;139.738;2022-07-30T13:21:15;30.70;99.90
9414;DHT22;4746;35.664;139.738;2022-07-30T13:23:42;30.60;99.90
9414;DHT22;4746;35.664;139.738;2022-07-30T13:26:11;30.70;99.90
9414;DHT22;4746;35.664;139.738;2022-07-30T13:28:39;30.70;99.90
9414;DHT22;4746;35.664;139.738;2022-07-30T13:31:06;30.70;99.90
9414;DHT22;4746;35.664;139.738;2022-07-30T13:33:38;30.70;99.90
9414;DHT22;4746;35.664;139.738;2022-07-30T13:36:06;30.80;99.90
9414;DHT22;4746;35.664;139.738;2022-07-30T13:38:34;30.80;99.90
9414;DHT22;4746;35.664;139.738;2022-07-30T13:41:03;30.80;99.90
9414;DHT22;4746;35.664;139.738;2022-07-30T13:43:31;30.80;99.90
9414;DHT22;4746;35.664;139.738;2022-07-30T13:45:59;30.80;99.90
9414;DHT22;4746;35.664;139.738;2022-07-30T13:48:31;30.80;99.90
9414;DHT22;4746;35.664;139.738;2022-07-30T13:51:03;30.80;99.90
9414;DHT22;4746;35.664;139.738;2022-07-30T13:53:31;30.80;99.90
9414;DHT22;4746;35.664;139.738;2022-07-30T13:55:59;30.80;99.90
9414;DHT22;4746;35.664;139.738;2022-07-30T13:58:26;30.80;99.90
9414;DHT22;4746;35.664;139.738;2022-07-30T14:00:54;30.80;99.90
9414;DHT22;4746;35.664;139.738;2022-07-30T14:03:23;30.80;99.90
9414;DHT22;4746;35.664;139.738;2022-07-30T14:05:50;30.80;99.90
9414;DHT22;4746;35.664;139.738;2022-07-30T14:08:18;30.80;99.90
9414;DHT22;4746;35.664;139.738;2022-07-30T14:10:46;30.80;99.90
9414;DHT22;4746;35.664;139.738;2022-07-30T14:13:14;30.80;99.90
9414;DHT22;4746;35.664;139.738;2022-07-30T14:15:43;30.80;99.90
9414;DHT22;4746;35.664;139.738;2022-07-30T14:18:10;30.80;99.90
9414;DHT22;4746;35.664;139.738;2022-07-30T14:20:38;30.80;99.90
9414;DHT22;4746;35.664;139.738;2022-07-30T14:23:05;30.80;99.90
9414;DHT22;4746;35.664;139.738;2022-07-30T14:25:34;30.80;99.90
9414;DHT22;4746;35.664;139.738;2022-07-30T14:28:01;30.80;99.90
9414;DHT22;4746;35.664;139.738;2022-07-30T14:30:30;30.80;99.90
9414;DHT22;4746;35.664;139.738;2022-07-30T14:32:57;30.80;99.90
9414;DHT22;4746;35.664;139.738;2022-07-30T14:35:25;30.70;99.90
9414;DHT22;4746;35.664;139.738;2022-07-30T14:37:52;30.70;99.90
9414;DHT22;4746;35.664;139.738;2022-07-30T14:40:20;30.70;99.90
9414;DHT22;4746;35.664;139.738;2022-07-30T14:42:47;30.70;99.90
9414;DHT22;4746;35.664;139.738;2022-07-30T14:45:15;30.70;99.90
9414;DHT22;4746;35.664;139.738;2022-07-30T14:47:42;30.70;99.90
9414;DHT22;4746;35.664;139.738;2022-07-30T14:50:10;30.70;99.90
9414;DHT22;4746;35.664;139.738;2022-07-30T14:52:38;30.70;99.90
9414;DHT22;4746;35.664;139.738;2022-07-30T14:55:07;30.70;99.90
9414;DHT22;4746;35.664;139.738;2022-07-30T14:57:35;30.70;99.90
9414;DHT22;4746;35.664;139.738;2022-07-30T15:00:04;30.70;99.90
9414;DHT22;4746;35.664;139.738;2022-07-30T15:02:34;30.80;99.90
9414;DHT22;4746;35.664;139.738;2022-07-30T15:05:02;30.80;99.90
9414;DHT22;4746;35.664;139.738;2022-07-30T15:07:30;30.80;99.90
9414;DHT22;4746;35.664;139.738;2022-07-30T15:09:57;30.80;99.90
9414;DHT22;4746;35.664;139.738;2022-07-30T15:12:26;30.90;99.90
9414;DHT22;4746;35.664;139.738;2022-07-30T15:14:54;30.80;99.90
9414;DHT22;4746;35.664;139.738;2022-07-30T15:17:21;30.90;99.90
9414;DHT22;4746;35.664;139.738;2022-07-30T15:19:49;30.80;99.90
9414;DHT22;4746;35.664;139.738;2022-07-30T15:22:20;30.80;99.90
9414;DHT22;4746;35.664;139.738;2022-07-30T15:24:48;30.80;99.90
9414;DHT22;4746;35.664;139.738;2022-07-30T15:27:16;30.80;99.90
9414;DHT22;4746;35.664;139.738;2022-07-30T15:29:43;30.80;99.90
9414;DHT22;4746;35.664;139.738;2022-07-30T15:32:11;30.80;99.90
9414;DHT22;4746;35.664;139.738;2022-07-30T15:34:38;30.80;99.90
9414;DHT22;4746;35.664;139.738;2022-07-30T15:37:06;30.80;99.90
9414;DHT22;4746;35.664;139.738;2022-07-30T15:39:34;30.80;99.90
9414;DHT22;4746;35.664;139.738;2022-07-30T15:42:02;30.70;99.90
9414;DHT22;4746;35.664;139.738;2022-07-30T15:44:31;30.70;99.90
9414;DHT22;4746;35.664;139.738;2022-07-30T15:46:59;30.70;99.90
9414;DHT22;4746;35.664;139.738;2022-07-30T15:49:28;30.60;99.90
9414;DHT22;4746;35.664;139.738;2022-07-30T15:51:58;30.70;99.90
9414;DHT22;4746;35.664;139.738;2022-07-30T15:54:26;30.70;99.90
9414;DHT22;4746;35.664;139.738;2022-07-30T15:56:54;30.70;99.90
9414;DHT22;4746;35.664;139.738;2022-07-30T15:59:25;30.70;99.90
9414;DHT22;4746;35.664;139.738;2022-07-30T16:01:53;30.60;99.90
9414;DHT22;4746;35.664;139.738;2022-07-30T16:04:20;30.60;99.90
9414;DHT22;4746;35.664;139.738;2022-07-30T16:06:49;30.60;99.90
9414;DHT22;4746;35.664;139.738;2022-07-30T16:09:22;30.60;99.90
9414;DHT22;4746;35.664;139.738;2022-07-30T16:11:50;30.60;99.90
9414;DHT22;4746;35.664;139.738;2022-07-30T16:14:17;30.60;99.90
9414;DHT22;4746;35.664;139.738;2022-07-30T16:16:45;30.60;99.90
9414;DHT22;4746;35.664;139.738;2022-07-30T16:19:13;30.60;99.90
9414;DHT22;4746;35.664;139.738;2022-07-30T16:21:40;30.60;99.90
9414;DHT22;4746;35.664;139.738;2022-07-30T16:24:08;30.50;99.90
9414;DHT22;4746;35.664;139.738;2022-07-30T16:26:35;30.60;99.90